Guadalupe, Arizona
Current Conditions -  °F | °C
As of 3:51 PM on Thursday 20 Nov 2014 (Local Time) from KPHX Reporting Station
Broken Clouds Broken Clouds  
Wind Chill: 73°   Ceiling: 29000
Heat Index: 73°   Visibility: 10mi
Dew Point: 18°   Wind: 3mph
Humidity: 12%   Direction: 230°SW
Pressure: 29.95"   Gusts: NA
Location:  33.364°N, 111.931°W
Report Text: KPHX 202251Z 23003KT 10SM FEW250 BKN290 23/M08 A2995 RMK AO2 SLP133 T02281078
Loading
Personal Weather Stations






























Interactive Weather Map New forecast layout! Learn more

10-Day Weather Forecast

Advertisements
Track Severe Weather on mobile